createdAt,value
2022-12-19T00:01:56.219Z,8.47
2022-12-19T00:04:23.418Z,9.20
2022-12-19T00:06:51.186Z,8.90
2022-12-19T00:09:18.364Z,8.60
2022-12-19T00:11:47.730Z,7.30
2022-12-19T00:14:14.919Z,7.97
2022-12-19T00:16:42.307Z,7.70
2022-12-19T00:19:11.270Z,8.47
2022-12-19T00:21:39.219Z,7.23
2022-12-19T00:24:20.653Z,8.53
2022-12-19T00:26:49.632Z,8.20
2022-12-19T00:29:17.035Z,7.10
2022-12-19T00:31:44.334Z,8.00
2022-12-19T00:34:11.562Z,8.50
2022-12-19T00:36:38.811Z,8.20
2022-12-19T00:39:07.906Z,7.57
2022-12-19T00:41:41.838Z,8.10
2022-12-19T00:44:16.539Z,7.60
2022-12-19T00:46:45.144Z,6.50
2022-12-19T00:49:19.513Z,9.43
2022-12-19T00:51:46.882Z,8.03
2022-12-19T00:54:14.132Z,7.70
2022-12-19T00:56:42.246Z,8.50
2022-12-19T00:59:10.681Z,8.37
2022-12-19T01:01:41.356Z,6.63
2022-12-19T01:04:29.997Z,6.00
2022-12-19T01:07:01.768Z,6.43
2022-12-19T01:09:30.831Z,5.83
2022-12-19T01:12:16.602Z,6.97
2022-12-19T01:14:43.801Z,6.13
2022-12-19T01:17:11.203Z,6.30
2022-12-19T01:19:43.778Z,6.17
2022-12-19T01:22:13.257Z,6.10
2022-12-19T01:24:40.583Z,6.40
2022-12-19T01:27:07.951Z,6.00
2022-12-19T01:29:44.672Z,5.90
2022-12-19T01:32:21.250Z,6.77
2022-12-19T01:34:48.382Z,6.60
2022-12-19T01:37:18.179Z,6.00
2022-12-19T01:39:46.091Z,6.17
2022-12-19T01:42:23.471Z,5.97
2022-12-19T01:45:17.322Z,5.67
2022-12-19T01:48:16.423Z,5.77
2022-12-19T01:51:04.131Z,6.20
2022-12-19T01:53:48.742Z,5.90
2022-12-19T01:56:19.693Z,6.87
2022-12-19T01:58:49.932Z,6.97
2022-12-19T02:01:18.396Z,7.50
2022-12-19T02:03:46.177Z,6.20
2022-12-19T02:06:16.644Z,6.43
2022-12-19T02:08:47.252Z,6.70
2022-12-19T02:11:14.731Z,6.73
2022-12-19T02:13:43.586Z,6.17
2022-12-19T02:16:30.060Z,5.80
2022-12-19T02:19:22.140Z,6.90
2022-12-19T02:22:19.201Z,6.53
2022-12-19T02:25:01.654Z,6.50
2022-12-19T02:27:53.772Z,6.60
2022-12-19T02:30:53.562Z,7.17
2022-12-19T02:33:38.512Z,6.40
2022-12-19T02:36:16.499Z,8.30
2022-12-19T02:38:56.418Z,7.20
2022-12-19T02:41:29.709Z,8.23
2022-12-19T02:43:59.035Z,7.40
2022-12-19T02:46:28.150Z,7.20
2022-12-19T02:48:56.131Z,6.80
2022-12-19T02:51:23.253Z,7.17
2022-12-19T02:53:50.840Z,7.53
2022-12-19T02:56:32.468Z,6.73
2022-12-19T02:59:18.547Z,7.60
2022-12-19T03:01:55.005Z,7.40
2022-12-19T03:04:50.013Z,6.67
2022-12-19T03:07:25.487Z,5.83
2022-12-19T03:10:01.587Z,6.93
2022-12-19T03:12:38.192Z,6.23
2022-12-19T03:15:06.475Z,6.30
2022-12-19T03:17:40.264Z,6.63
2022-12-19T03:20:36.320Z,7.30
2022-12-19T03:23:03.446Z,6.27
2022-12-19T03:25:32.100Z,7.33
2022-12-19T03:28:04.828Z,7.20
2022-12-19T03:30:34.256Z,6.43
2022-12-19T03:33:02.813Z,6.30
2022-12-19T03:35:32.198Z,6.97
2022-12-19T03:38:03.883Z,6.17
2022-12-19T03:40:33.206Z,7.23
2022-12-19T03:43:11.582Z,7.30
2022-12-19T03:45:52.648Z,6.23
2022-12-19T03:48:42.102Z,6.83
2022-12-19T03:51:48.344Z,6.53
2022-12-19T03:54:27.431Z,7.30
2022-12-19T03:57:06.973Z,6.80
2022-12-19T03:59:46.120Z,7.63
2022-12-19T04:02:15.995Z,6.60
2022-12-19T04:04:50.692Z,6.60
2022-12-19T04:07:19.700Z,7.10
2022-12-19T04:09:49.244Z,7.17
2022-12-19T04:12:19.660Z,6.40
2022-12-19T04:14:47.753Z,6.10
2022-12-19T04:17:39.454Z,6.30
2022-12-19T04:20:10.627Z,6.37
2022-12-19T04:22:47.038Z,7.23
2022-12-19T04:25:25.117Z,7.93
2022-12-19T04:28:02.777Z,8.20
2022-12-19T04:30:30.317Z,6.83
2022-12-19T04:33:04.649Z,7.50
2022-12-19T04:35:32.299Z,6.83
2022-12-19T04:37:59.448Z,6.83
2022-12-19T04:40:26.719Z,7.73
2022-12-19T04:42:54.022Z,7.47
2022-12-19T04:45:21.117Z,6.10
2022-12-19T04:47:48.432Z,6.77
2022-12-19T04:50:15.629Z,6.20
2022-12-19T04:52:42.768Z,5.97
2022-12-19T04:55:10.372Z,6.60
2022-12-19T04:57:37.776Z,6.37
2022-12-19T05:00:07.179Z,7.30
2022-12-19T05:02:38.247Z,5.90
2022-12-19T05:05:06.022Z,7.10
2022-12-19T05:07:33.128Z,6.37
2022-12-19T05:10:00.389Z,7.27
2022-12-19T05:12:29.477Z,6.97
2022-12-19T05:14:56.673Z,6.67
2022-12-19T05:17:23.775Z,6.00
2022-12-19T05:19:50.987Z,7.00
2022-12-19T05:22:18.118Z,7.07
2022-12-19T05:24:45.288Z,6.40
2022-12-19T05:27:12.405Z,5.97
2022-12-19T05:29:39.566Z,6.53
2022-12-19T05:32:07.107Z,6.70
2022-12-19T05:34:34.233Z,6.80
2022-12-19T05:37:03.570Z,7.40
2022-12-19T05:39:30.876Z,6.43
2022-12-19T05:41:58.043Z,6.63
2022-12-19T05:44:26.108Z,7.37
2022-12-19T05:46:53.514Z,7.50
2022-12-19T05:49:20.662Z,7.43
2022-12-19T05:51:48.228Z,6.50
2022-12-19T05:54:15.475Z,6.10
2022-12-19T05:56:42.596Z,7.07
2022-12-19T05:59:11.288Z,7.27
2022-12-19T06:01:39.435Z,7.00
2022-12-19T06:04:07.880Z,6.47
2022-12-19T06:06:35.024Z,6.10
2022-12-19T06:09:02.801Z,7.17
2022-12-19T06:11:30.113Z,6.30
2022-12-19T06:13:57.251Z,7.00
2022-12-19T06:16:24.741Z,6.60
2022-12-19T06:18:52.039Z,6.50
2022-12-19T06:21:23.259Z,6.50
2022-12-19T06:23:50.817Z,7.57
2022-12-19T06:26:21.035Z,8.00
2022-12-19T06:28:52.855Z,9.60
2022-12-19T06:31:22.080Z,8.60
2022-12-19T06:33:49.645Z,8.50
2022-12-19T06:36:25.708Z,9.40
2022-12-19T06:38:54.248Z,9.23
2022-12-19T06:41:40.183Z,8.57
2022-12-19T06:44:09.739Z,9.50
2022-12-19T06:46:38.599Z,9.07
2022-12-19T06:49:06.776Z,7.47
2022-12-19T06:51:34.049Z,7.83
2022-12-19T06:54:01.187Z,7.20
2022-12-19T06:56:28.663Z,6.80
2022-12-19T06:58:55.915Z,7.70
2022-12-19T07:01:53.853Z,7.70
2022-12-19T07:04:49.434Z,7.60
2022-12-19T07:07:17.073Z,9.37
2022-12-19T07:09:44.212Z,10.53
2022-12-19T07:12:11.341Z,9.90
2022-12-19T07:14:38.585Z,10.50
2022-12-19T07:17:06.451Z,10.50
2022-12-19T07:19:35.031Z,10.30
2022-12-19T07:22:03.614Z,9.60
2022-12-19T07:24:31.445Z,8.97
2022-12-19T07:26:58.728Z,8.73
2022-12-19T07:29:26.631Z,8.73
2022-12-19T07:31:54.090Z,9.37
2022-12-19T07:34:21.200Z,9.57
2022-12-19T07:36:51.158Z,9.43
2022-12-19T07:39:18.619Z,9.13
2022-12-19T07:41:45.766Z,9.10
2022-12-19T07:44:13.478Z,9.80
2022-12-19T07:46:40.640Z,9.80
2022-12-19T07:49:07.826Z,9.80
2022-12-19T07:51:35.021Z,10.70
2022-12-19T07:54:04.727Z,11.00
2022-12-19T07:56:31.943Z,11.07
2022-12-19T07:58:59.786Z,9.47
2022-12-19T08:01:28.464Z,9.70
2022-12-19T08:03:56.013Z,9.27
2022-12-19T08:06:23.574Z,9.03
2022-12-19T08:08:50.915Z,8.63
2022-12-19T08:11:27.704Z,9.83
2022-12-19T08:13:55.467Z,9.50
2022-12-19T08:16:24.329Z,10.13
2022-12-19T08:18:51.782Z,9.13
2022-12-19T08:21:19.312Z,9.37
2022-12-19T08:23:46.552Z,15.80
2022-12-19T08:26:25.027Z,11.10
2022-12-19T08:28:54.303Z,8.73
2022-12-19T08:31:24.428Z,9.80
2022-12-19T08:33:53.962Z,9.67
2022-12-19T08:36:22.060Z,12.10
2022-12-19T08:38:50.147Z,9.60
2022-12-19T08:41:18.277Z,10.93
2022-12-19T08:43:50.451Z,10.10
2022-12-19T08:46:19.151Z,9.70
2022-12-19T08:48:46.901Z,11.17
2022-12-19T08:51:15.385Z,10.40
2022-12-19T08:53:44.359Z,10.50
2022-12-19T08:56:20.575Z,9.90
2022-12-19T08:58:48.113Z,9.90
2022-12-19T09:01:21.334Z,9.80
2022-12-19T09:04:06.951Z,8.70
2022-12-19T09:06:35.780Z,11.47
2022-12-19T09:09:04.809Z,10.60
2022-12-19T09:11:32.163Z,10.57
2022-12-19T09:13:59.439Z,10.50
2022-12-19T09:16:28.156Z,11.57
2022-12-19T09:18:58.735Z,11.40
2022-12-19T09:21:29.165Z,11.60
2022-12-19T09:24:05.261Z,9.83
2022-12-19T09:26:35.713Z,11.00
2022-12-19T09:29:17.476Z,11.20
2022-12-19T09:31:55.257Z,10.53
2022-12-19T09:34:37.986Z,10.40
2022-12-19T09:37:17.093Z,12.33
2022-12-19T09:39:48.586Z,11.17
2022-12-19T09:42:21.727Z,10.20
2022-12-19T09:45:08.360Z,10.70
2022-12-19T09:47:42.265Z,12.07
2022-12-19T09:50:31.415Z,12.13
2022-12-19T09:53:05.441Z,9.70
2022-12-19T09:55:37.686Z,11.60
2022-12-19T09:58:37.759Z,10.67
2022-12-19T10:01:23.312Z,11.40
2022-12-19T10:04:13.639Z,11.40
2022-12-19T10:07:13.981Z,10.73
2022-12-19T10:11:53.369Z,10.40
2022-12-19T10:13:01.703Z,9.90
2022-12-19T10:16:00.230Z,9.37
2022-12-19T10:18:56.480Z,11.17
2022-12-19T10:22:16.816Z,11.07
2022-12-19T10:25:26.612Z,10.30
2022-12-19T10:28:06.329Z,9.87
2022-12-19T10:30:38.546Z,9.80
2022-12-19T10:33:27.714Z,11.23
2022-12-19T10:36:02.258Z,11.83
2022-12-19T10:38:39.457Z,10.27
2022-12-19T10:41:31.299Z,10.67
2022-12-19T10:44:02.601Z,10.07
2022-12-19T10:46:40.253Z,10.80
2022-12-19T10:49:26.188Z,9.80
2022-12-19T10:52:01.114Z,10.40
2022-12-19T10:54:37.307Z,10.20
2022-12-19T10:57:22.935Z,10.77
2022-12-19T11:00:00.657Z,10.30
2022-12-19T11:02:39.905Z,10.90
2022-12-19T11:05:25.439Z,9.93
2022-12-19T11:08:03.029Z,10.10
2022-12-19T11:12:13.542Z,9.80
2022-12-19T11:18:51.956Z,10.23
2022-12-19T11:22:16.212Z,9.93
2022-12-19T11:29:18.726Z,11.87
2022-12-19T11:29:44.851Z,12.10
2022-12-19T11:30:21.355Z,10.50
2022-12-19T11:30:26.150Z,10.40
2022-12-19T11:33:19.333Z,10.77
2022-12-19T11:35:52.033Z,9.30
2022-12-19T11:38:45.405Z,9.87
2022-12-19T11:41:22.158Z,9.10
2022-12-19T11:44:29.847Z,9.20
2022-12-19T11:47:05.852Z,9.27
2022-12-19T11:49:42.267Z,9.63
2022-12-19T11:55:30.512Z,10.77
2022-12-19T11:57:58.426Z,8.57
2022-12-19T12:00:25.747Z,8.90
2022-12-19T12:03:22.782Z,9.43
2022-12-19T12:05:51.441Z,9.50
2022-12-19T12:10:07.612Z,8.47
2022-12-19T12:16:45.782Z,8.87
2022-12-19T12:26:11.561Z,7.90
2022-12-19T12:30:41.687Z,8.73
2022-12-19T12:31:23.393Z,9.10
2022-12-19T12:31:47.565Z,9.63
2022-12-19T12:32:04.342Z,9.50
2022-12-19T12:32:06.511Z,10.13
2022-12-19T12:35:33.434Z,9.47
2022-12-19T12:39:44.555Z,8.90
2022-12-19T12:42:23.730Z,9.07
2022-12-19T12:44:55.075Z,9.00
2022-12-19T12:47:27.231Z,8.97
2022-12-19T12:50:01.716Z,9.57
2022-12-19T12:52:45.938Z,9.80
2022-12-19T12:55:40.185Z,9.20
2022-12-19T12:58:45.734Z,10.10
2022-12-19T13:01:32.819Z,9.23
2022-12-19T13:04:05.855Z,9.33
2022-12-19T13:06:36.432Z,8.60
2022-12-19T13:09:09.675Z,9.23
2022-12-19T13:11:58.757Z,10.00
2022-12-19T13:14:34.905Z,10.50
2022-12-19T13:17:04.239Z,10.00
2022-12-19T13:19:39.776Z,9.73
2022-12-19T13:22:09.894Z,10.50
2022-12-19T13:24:50.051Z,9.20
2022-12-19T13:27:20.107Z,10.10
2022-12-19T13:30:14.824Z,11.30
2022-12-19T13:32:41.973Z,10.10
2022-12-19T13:36:15.416Z,11.43
2022-12-19T13:40:01.898Z,11.47
2022-12-19T13:41:49.228Z,9.57
2022-12-19T13:44:22.044Z,10.80
2022-12-19T13:46:49.871Z,9.80
2022-12-19T13:49:25.437Z,9.90
2022-12-19T13:51:57.592Z,9.90
2022-12-19T13:54:32.997Z,11.67
2022-12-19T13:57:04.348Z,11.70
2022-12-19T13:59:40.200Z,11.10
2022-12-19T14:02:16.034Z,11.03
2022-12-19T14:04:44.652Z,11.67
2022-12-19T14:07:36.939Z,11.20
2022-12-19T14:11:39.309Z,11.37
2022-12-19T14:13:49.029Z,10.77
2022-12-19T14:16:04.514Z,10.97
2022-12-19T14:18:44.351Z,11.77
2022-12-19T14:22:05.554Z,11.73
2022-12-19T14:24:31.801Z,11.20
2022-12-19T14:28:22.085Z,10.83
2022-12-19T14:30:26.758Z,10.57
2022-12-19T14:33:45.211Z,11.30
2022-12-19T14:36:12.072Z,11.37
2022-12-19T14:39:21.314Z,11.37
2022-12-19T14:41:48.096Z,10.27
2022-12-19T14:52:25.121Z,10.50
2022-12-19T14:53:52.728Z,11.83
2022-12-19T14:54:26.361Z,11.43
2022-12-19T14:54:27.815Z,11.20
2022-12-19T14:56:54.194Z,13.00
2022-12-19T14:59:35.229Z,11.57
2022-12-19T15:02:08.613Z,11.17
2022-12-19T15:04:54.566Z,12.83
2022-12-19T15:07:27.293Z,11.10
2022-12-19T15:11:06.716Z,12.10
2022-12-19T15:14:51.499Z,11.93
2022-12-19T15:16:06.375Z,10.63
2022-12-19T15:18:33.589Z,11.80
2022-12-19T15:21:06.754Z,11.77
2022-12-19T15:23:34.289Z,11.50
2022-12-19T15:26:08.373Z,11.03
2022-12-19T15:28:46.730Z,11.27
2022-12-19T15:31:34.878Z,12.60
2022-12-19T15:34:35.558Z,12.23
2022-12-19T15:37:04.256Z,10.40
2022-12-19T15:39:31.698Z,12.40
2022-12-19T15:42:00.236Z,10.97
2022-12-19T15:44:39.923Z,11.80
2022-12-19T15:47:37.595Z,12.23
2022-12-19T15:50:32.315Z,11.73
2022-12-19T15:53:02.296Z,11.87
2022-12-19T15:55:30.704Z,12.03
2022-12-19T15:58:01.392Z,12.03
2022-12-19T16:00:33.908Z,12.40
2022-12-19T16:05:48.929Z,12.27
2022-12-19T16:08:18.744Z,12.80
2022-12-19T16:10:54.540Z,11.90
2022-12-19T16:13:29.341Z,12.47
2022-12-19T16:15:58.254Z,13.83
2022-12-19T16:18:25.606Z,12.80
2022-12-19T16:20:53.293Z,15.90
2022-12-19T16:23:22.391Z,12.80
2022-12-19T16:25:53.387Z,13.00
2022-12-19T16:28:28.259Z,14.20
2022-12-19T16:30:59.407Z,13.60
2022-12-19T16:33:28.966Z,15.00
2022-12-19T16:36:06.075Z,12.77
2022-12-19T16:38:34.604Z,13.73
2022-12-19T16:41:02.375Z,14.20
2022-12-19T16:43:38.606Z,14.47
2022-12-19T16:46:13.305Z,14.90
2022-12-19T16:48:40.535Z,15.20
2022-12-19T16:51:29.162Z,15.23
2022-12-19T16:53:58.912Z,16.60
2022-12-19T16:56:35.372Z,15.40
2022-12-19T16:59:08.379Z,14.30
2022-12-19T17:01:36.317Z,15.20
2022-12-19T17:04:03.534Z,16.50
2022-12-19T17:06:30.753Z,15.00
2022-12-19T17:08:57.985Z,14.90
2022-12-19T17:11:27.792Z,14.83
2022-12-19T17:14:08.451Z,14.80
2022-12-19T17:16:36.613Z,16.00
2022-12-19T17:19:03.837Z,16.67
2022-12-19T17:21:31.035Z,16.13
2022-12-19T17:23:58.161Z,14.53
2022-12-19T17:26:25.290Z,15.30
2022-12-19T17:28:52.442Z,15.90
2022-12-19T17:31:26.606Z,16.43
2022-12-19T17:33:57.771Z,17.33
2022-12-19T17:36:34.792Z,16.83
2022-12-19T17:39:20.094Z,17.33
2022-12-19T17:41:48.775Z,16.50
2022-12-19T17:44:15.954Z,16.60
2022-12-19T17:46:44.473Z,16.83
2022-12-19T17:49:44.217Z,16.07
2022-12-19T17:52:15.542Z,17.60
2022-12-19T17:54:43.004Z,18.30
2022-12-19T17:57:14.602Z,18.37
2022-12-19T17:59:42.378Z,17.97
2022-12-19T18:02:23.414Z,18.13
2022-12-19T18:04:52.719Z,17.30
2022-12-19T18:07:20.371Z,16.80
2022-12-19T18:09:48.976Z,16.00
2022-12-19T18:12:16.189Z,18.00
2022-12-19T18:14:43.458Z,17.60
2022-12-19T18:17:20.561Z,16.83
2022-12-19T18:19:47.725Z,17.13
2022-12-19T18:22:15.364Z,18.30
2022-12-19T18:24:42.547Z,16.80
2022-12-19T18:27:09.863Z,19.10
2022-12-19T18:29:37.131Z,16.53
2022-12-19T18:32:04.580Z,16.90
2022-12-19T18:34:33.220Z,17.30
2022-12-19T18:37:00.446Z,17.03
2022-12-19T18:39:29.322Z,17.43
2022-12-19T18:41:56.493Z,18.97
2022-12-19T18:44:23.755Z,17.37
2022-12-19T18:46:51.608Z,18.07
2022-12-19T18:49:19.131Z,17.50
2022-12-19T18:51:46.569Z,17.47
2022-12-19T18:54:22.932Z,19.17
2022-12-19T18:56:50.172Z,19.30
2022-12-19T18:59:17.303Z,20.90
2022-12-19T19:01:46.960Z,18.20
2022-12-19T19:04:17.908Z,18.33
2022-12-19T19:06:51.990Z,17.97
2022-12-19T19:09:21.015Z,19.77
2022-12-19T19:11:48.249Z,18.30
2022-12-19T19:14:15.574Z,17.57
2022-12-19T19:16:45.297Z,19.23
2022-12-19T19:19:17.364Z,18.80
2022-12-19T19:21:44.749Z,19.87
2022-12-19T19:24:24.098Z,19.27
2022-12-19T19:26:51.234Z,16.93
2022-12-19T19:29:19.787Z,18.17
2022-12-19T19:31:50.046Z,19.43
2022-12-19T19:34:33.636Z,20.30
2022-12-19T19:37:03.984Z,19.50
2022-12-19T19:39:33.856Z,19.70
2022-12-19T19:42:01.451Z,18.60
2022-12-19T19:44:29.912Z,18.37
2022-12-19T19:46:57.185Z,19.70
2022-12-19T19:49:24.987Z,19.50
2022-12-19T19:51:55.690Z,17.43
2022-12-19T19:54:27.532Z,17.47
2022-12-19T19:56:54.889Z,17.97
2022-12-19T19:59:22.382Z,18.57
2022-12-19T20:01:54.367Z,18.80
2022-12-19T20:04:22.095Z,18.40
2022-12-19T20:06:49.267Z,18.17
2022-12-19T20:09:16.764Z,17.83
2022-12-19T20:11:43.875Z,18.20
2022-12-19T20:14:11.057Z,17.77
2022-12-19T20:16:38.269Z,17.37
2022-12-19T20:19:05.781Z,17.47
2022-12-19T20:21:33.430Z,19.10
2022-12-19T20:24:00.874Z,17.97
2022-12-19T20:26:28.410Z,18.00
2022-12-19T20:28:55.791Z,18.40
2022-12-19T20:31:24.511Z,16.90
2022-12-19T20:33:54.757Z,17.70
2022-12-19T20:36:23.275Z,16.63
2022-12-19T20:38:50.841Z,19.03
2022-12-19T20:41:18.467Z,19.67
2022-12-19T20:43:45.857Z,18.27
2022-12-19T20:46:15.765Z,16.40
2022-12-19T20:48:43.780Z,17.40
2022-12-19T20:51:11.993Z,17.97
2022-12-19T20:53:41.342Z,15.40
2022-12-19T20:56:11.115Z,14.97
2022-12-19T20:58:38.512Z,16.10
2022-12-19T21:01:12.054Z,16.40
2022-12-19T21:03:40.633Z,16.60
2022-12-19T21:06:09.658Z,15.80
2022-12-19T21:08:37.768Z,16.13
2022-12-19T21:11:07.127Z,17.13
2022-12-19T21:13:35.192Z,15.73
2022-12-19T21:16:07.131Z,16.27
2022-12-19T21:18:35.797Z,17.17
2022-12-19T21:21:04.640Z,16.30
2022-12-19T21:23:31.821Z,14.77
2022-12-19T21:26:01.033Z,16.67
2022-12-19T21:28:28.843Z,18.30
2022-12-19T21:31:01.343Z,18.00
2022-12-19T21:33:29.192Z,17.43
2022-12-19T21:35:56.653Z,17.80
2022-12-19T21:38:24.539Z,18.40
2022-12-19T21:40:51.735Z,18.23
2022-12-19T21:43:18.942Z,17.53
2022-12-19T21:45:46.113Z,16.63
2022-12-19T21:48:13.292Z,17.90
2022-12-19T21:50:40.487Z,17.63
2022-12-19T21:53:07.617Z,18.10
2022-12-19T21:55:34.897Z,17.30
2022-12-19T21:58:02.067Z,18.07
2022-12-19T22:00:29.298Z,16.30
2022-12-19T22:03:13.246Z,16.20
2022-12-19T22:05:41.031Z,15.50
2022-12-19T22:08:10.355Z,17.30
2022-12-19T22:10:39.742Z,15.13
2022-12-19T22:13:06.913Z,14.60
2022-12-19T22:15:36.465Z,15.13
2022-12-19T22:18:03.879Z,14.50
2022-12-19T22:20:31.000Z,14.63
2022-12-19T22:22:58.165Z,14.73
2022-12-19T22:25:25.345Z,14.60
2022-12-19T22:27:55.913Z,16.97
2022-12-19T22:30:23.094Z,15.40
2022-12-19T22:32:50.213Z,17.00
2022-12-19T22:35:17.788Z,14.40
2022-12-19T22:37:45.126Z,16.13
2022-12-19T22:40:13.347Z,15.83
2022-12-19T22:42:40.496Z,15.90
2022-12-19T22:45:08.203Z,17.90
2022-12-19T22:47:35.779Z,16.57
2022-12-19T22:50:02.964Z,17.33
2022-12-19T22:52:30.088Z,16.93
2022-12-19T22:54:57.223Z,16.80
2022-12-19T22:57:24.427Z,16.57
2022-12-19T22:59:51.668Z,18.10
2022-12-19T23:02:18.874Z,17.10
2022-12-19T23:04:46.093Z,17.77
2022-12-19T23:07:13.170Z,17.00
2022-12-19T23:09:40.332Z,17.80
2022-12-19T23:12:07.569Z,17.07
2022-12-19T23:14:34.696Z,16.87
2022-12-19T23:17:01.778Z,16.53
2022-12-19T23:19:28.950Z,16.90
2022-12-19T23:21:56.190Z,15.30
2022-12-19T23:24:23.543Z,14.43
2022-12-19T23:26:53.298Z,16.03
2022-12-19T23:29:20.484Z,14.60
2022-12-19T23:31:48.082Z,16.00
2022-12-19T23:34:17.025Z,13.57
2022-12-19T23:37:10.192Z,15.67
2022-12-19T23:39:32.111Z,15.43
2022-12-19T23:41:59.276Z,15.00
2022-12-19T23:44:27.150Z,14.40
2022-12-19T23:47:00.829Z,14.67
2022-12-19T23:49:30.138Z,15.03
2022-12-19T23:51:57.274Z,14.80
2022-12-19T23:54:24.457Z,14.57
2022-12-19T23:56:53.486Z,15.50
2022-12-19T23:59:20.694Z,15.07
